Time;durP1;ratioP1;P1;durP2;ratioP2;P2;SDS_P1;SDS_P2;PMS_P1;PMS_P2;Temp;Humidity;BMP_temperature;BMP_pressure;BME280_temperature;BME280_humidity;BME280_pressure;Samples;Min_cycle;Max_cycle;Signal;HPM_P1;HPM_P2
2021/12/12 00:00:46;;;;;;;0.40;0.30;;;3.10;99.90;;;;;;5091457;28;20385;-69
2021/12/12 00:03:32;;;;;;;0.40;0.30;;;3.00;99.90;;;;;;5079692;28;20907;-69
2021/12/12 00:06:00;;;;;;;0.55;0.55;;;3.00;99.90;;;;;;5090656;28;20386;-70
2021/12/12 00:08:27;;;;;;;0.40;0.30;;;2.90;99.90;;;;;;5091437;28;20488;-69
2021/12/12 00:11:04;;;;;;;0.40;0.30;;;2.90;99.90;;;;;;5090725;28;20453;-69
2021/12/12 00:13:38;;;;;;;0.40;0.30;;;2.90;99.90;;;;;;5091147;28;20366;-69
2021/12/12 00:16:04;;;;;;;0.40;0.22;;;2.80;99.90;;;;;;5089348;28;20457;-70
2021/12/12 00:18:30;;;;;;;0.40;0.40;;;2.80;99.90;;;;;;5090377;28;20378;-69
2021/12/12 00:20:56;;;;;;;0.40;0.20;;;2.80;99.90;;;;;;5091237;28;20431;-69
2021/12/12 00:23:22;;;;;;;0.40;0.20;;;2.80;99.90;;;;;;5091609;28;20420;-67
2021/12/12 00:25:54;;;;;;;0.40;0.30;;;2.70;99.90;;;;;;5090582;28;20402;-72
2021/12/12 00:28:22;;;;;;;0.40;0.30;;;2.70;99.90;;;;;;5091487;28;20409;-70
2021/12/12 00:30:54;;;;;;;0.40;0.20;;;2.70;99.90;;;;;;5091751;28;20374;-70
2021/12/12 00:33:23;;;;;;;0.40;0.40;;;2.70;99.90;;;;;;5100592;28;20376;-69
2021/12/12 00:35:50;;;;;;;0.80;0.80;;;2.70;99.90;;;;;;5111851;28;20444;-70
2021/12/12 00:38:25;;;;;;;0.40;0.20;;;2.70;99.90;;;;;;5093598;28;20766;-69
2021/12/12 00:40:56;;;;;;;0.40;0.20;;;2.70;99.90;;;;;;5112191;28;20373;-69
2021/12/12 00:43:28;;;;;;;0.40;0.30;;;2.70;99.90;;;;;;5111999;28;20365;-70
2021/12/12 00:46:02;;;;;;;0.40;0.40;;;2.70;99.90;;;;;;5093554;28;20460;-69
2021/12/12 00:48:29;;;;;;;0.40;0.20;;;2.80;99.90;;;;;;5111226;28;20465;-70
2021/12/12 00:50:58;;;;;;;0.40;0.30;;;2.80;99.90;;;;;;5111613;28;20385;-70
2021/12/12 00:53:24;;;;;;;0.40;0.30;;;2.70;99.90;;;;;;5092357;28;20535;-70
2021/12/12 00:55:53;;;;;;;0.40;0.20;;;2.70;99.90;;;;;;5111692;28;20746;-69
2021/12/12 00:58:20;;;;;;;0.50;0.50;;;2.60;99.90;;;;;;5092508;28;20550;-70
2021/12/12 01:01:02;;;;;;;0.70;0.60;;;2.50;99.90;;;;;;5111563;28;20380;-70
2021/12/12 01:03:34;;;;;;;0.60;0.60;;;2.40;99.90;;;;;;5111008;28;20388;-70
2021/12/12 01:06:02;;;;;;;0.40;0.30;;;2.30;99.90;;;;;;5111692;28;20379;-70
2021/12/12 01:08:28;;;;;;;0.40;0.30;;;2.30;99.90;;;;;;5092798;28;20914;-70
2021/12/12 01:11:10;;;;;;;0.40;0.20;;;2.30;99.90;;;;;;5093892;28;20452;-69
2021/12/12 01:13:36;;;;;;;0.40;0.20;;;2.40;99.90;;;;;;5111241;28;20372;-69
2021/12/12 01:16:14;;;;;;;0.40;0.20;;;2.40;99.90;;;;;;5111511;28;20769;-69
2021/12/12 01:18:47;;;;;;;2.10;1.40;;;2.30;99.90;;;;;;5110984;28;20415;-68
2021/12/12 01:21:19;;;;;;;6.70;0.80;;;2.20;99.90;;;;;;5111543;28;20372;-68
2021/12/12 01:23:52;;;;;;;0.40;0.20;;;2.10;99.90;;;;;;5111248;28;20463;-67
2021/12/12 01:26:18;;;;;;;0.40;0.30;;;2.10;99.90;;;;;;5111145;28;20416;-68
2021/12/12 01:28:46;;;;;;;0.50;0.40;;;2.00;99.90;;;;;;5110532;28;20423;-68
2021/12/12 01:31:16;;;;;;;0.60;0.40;;;1.90;99.90;;;;;;5111171;28;20384;-68
2021/12/12 01:33:43;;;;;;;0.80;0.80;;;1.90;99.90;;;;;;5098696;28;20393;-68
2021/12/12 01:36:22;;;;;;;1.30;0.70;;;1.80;99.90;;;;;;5090779;28;20737;-68
2021/12/12 01:38:56;;;;;;;0.40;0.30;;;1.80;99.90;;;;;;5090641;28;20476;-68
2021/12/12 01:41:27;;;;;;;0.40;0.30;;;1.90;99.90;;;;;;5090899;28;20849;-68
2021/12/12 01:44:19;;;;;;;0.40;0.30;;;1.80;99.90;;;;;;5089508;28;20892;-68
2021/12/12 01:47:03;;;;;;;0.45;0.45;;;1.70;99.90;;;;;;5089194;28;20397;-68
2021/12/12 01:49:30;;;;;;;1.30;1.20;;;1.60;99.90;;;;;;5090661;28;20402;-68
2021/12/12 01:51:57;;;;;;;0.50;0.40;;;1.60;99.90;;;;;;5090245;28;20778;-68
2021/12/12 01:54:29;;;;;;;0.77;0.73;;;1.60;99.90;;;;;;5090180;28;20872;-68
2021/12/12 01:56:59;;;;;;;0.40;0.30;;;1.50;99.90;;;;;;5090315;28;20497;-68
2021/12/12 01:59:30;;;;;;;0.40;0.30;;;1.60;99.90;;;;;;5090480;28;20862;-68
2021/12/12 02:02:14;;;;;;;0.50;0.50;;;1.40;99.90;;;;;;5089913;28;20496;-68
2021/12/12 02:04:45;;;;;;;0.40;0.40;;;1.40;99.90;;;;;;5090656;28;20390;-68
2021/12/12 02:07:15;;;;;;;0.50;0.50;;;1.40;99.90;;;;;;5090932;28;20424;-68
2021/12/12 02:09:42;;;;;;;0.40;0.30;;;1.40;99.90;;;;;;5090537;28;20433;-68
2021/12/12 02:12:08;;;;;;;0.40;0.30;;;1.30;99.90;;;;;;5090018;28;20386;-68
2021/12/12 02:14:37;;;;;;;0.40;0.30;;;1.40;99.90;;;;;;5090365;28;20378;-68
2021/12/12 02:17:15;;;;;;;0.40;0.30;;;1.40;99.90;;;;;;5089982;28;20374;-69
2021/12/12 02:20:03;;;;;;;0.40;0.20;;;1.50;99.90;;;;;;5090702;28;20740;-68
2021/12/12 02:36:01;;;;;;;0.40;0.30;;;1.40;99.90;;;;;;5110835;28;20441;-68
2021/12/12 02:38:32;;;;;;;0.40;0.20;;;1.30;99.90;;;;;;5110201;28;20455;-68
2021/12/12 02:41:07;;;;;;;0.40;0.30;;;1.30;99.90;;;;;;5114336;28;20369;-68
2021/12/12 02:43:38;;;;;;;0.40;0.30;;;1.30;99.90;;;;;;5114797;28;20364;-69
2021/12/12 02:46:05;;;;;;;0.40;0.20;;;1.30;99.90;;;;;;5114828;28;20369;-68
2021/12/12 02:48:34;;;;;;;0.40;0.30;;;1.30;99.90;;;;;;5113941;28;20479;-68
2021/12/12 02:51:06;;;;;;;0.40;0.20;;;1.20;99.90;;;;;;5114326;28;20437;-68
2021/12/12 02:53:40;;;;;;;0.40;0.30;;;1.20;99.90;;;;;;5113970;28;20461;-68
2021/12/12 02:56:13;;;;;;;0.40;0.20;;;1.00;99.90;;;;;;5114914;28;20406;-68
2021/12/12 02:58:41;;;;;;;0.40;0.40;;;1.00;99.90;;;;;;5113977;28;20420;-68
2021/12/12 03:01:25;;;;;;;0.40;0.20;;;1.00;99.90;;;;;;5114667;28;20395;-68
2021/12/12 03:03:52;;;;;;;0.40;0.20;;;1.00;99.90;;;;;;5114196;28;20403;-68
2021/12/12 03:06:22;;;;;;;0.40;0.40;;;1.00;99.90;;;;;;5114488;28;20761;-68
2021/12/12 03:08:50;;;;;;;0.40;0.20;;;1.00;99.90;;;;;;5113512;28;20800;-68
2021/12/12 03:11:16;;;;;;;0.40;0.30;;;1.00;99.90;;;;;;5114388;28;20392;-68
2021/12/12 03:13:42;;;;;;;0.40;0.20;;;1.00;99.90;;;;;;5113525;28;20805;-69
2021/12/12 03:16:09;;;;;;;0.40;0.20;;;1.00;99.90;;;;;;5114301;28;20425;-68
2021/12/12 03:18:43;;;;;;;0.40;0.20;;;1.00;99.90;;;;;;5114082;28;20390;-68
2021/12/12 03:21:28;;;;;;;0.40;0.20;;;1.00;99.90;;;;;;5114254;28;20379;-68
2021/12/12 03:23:56;;;;;;;0.40;0.20;;;1.10;99.90;;;;;;5113334;28;20580;-68
2021/12/12 03:26:23;;;;;;;0.40;0.20;;;1.10;99.90;;;;;;5081704;28;20405;-68
2021/12/12 03:28:52;;;;;;;0.40;0.20;;;1.10;99.90;;;;;;5092542;28;20877;-70
2021/12/12 03:31:24;;;;;;;0.40;0.30;;;1.00;99.90;;;;;;5093551;28;20394;-68
2021/12/12 03:33:50;;;;;;;0.40;0.20;;;1.00;99.90;;;;;;5093375;28;20369;-68
2021/12/12 03:36:18;;;;;;;0.40;0.20;;;1.00;99.90;;;;;;5092817;28;20374;-68
2021/12/12 03:38:49;;;;;;;0.40;0.20;;;1.00;99.90;;;;;;5093362;28;20393;-68
2021/12/12 03:41:22;;;;;;;0.40;0.20;;;1.10;99.90;;;;;;5092852;28;20441;-69
2021/12/12 03:43:58;;;;;;;0.40;0.30;;;1.10;99.90;;;;;;5093363;28;20382;-68
2021/12/12 03:46:25;;;;;;;0.40;0.20;;;1.10;99.90;;;;;;5092767;28;20411;-68
2021/12/12 03:48:53;;;;;;;0.40;0.20;;;1.00;99.90;;;;;;5093164;28;20723;-68
2021/12/12 03:51:22;;;;;;;0.40;0.30;;;1.00;99.90;;;;;;5091346;28;20389;-68
2021/12/12 03:53:48;;;;;;;0.40;0.20;;;0.90;99.90;;;;;;5093058;28;20378;-68
2021/12/12 03:56:15;;;;;;;0.40;0.20;;;0.90;99.90;;;;;;5092329;28;20448;-68
2021/12/12 03:58:42;;;;;;;0.40;0.30;;;0.90;99.90;;;;;;5092465;28;20747;-68
2021/12/12 04:01:13;;;;;;;0.40;0.20;;;0.90;99.90;;;;;;5092713;28;20386;-68
2021/12/12 04:03:41;;;;;;;0.40;0.20;;;0.80;99.90;;;;;;5091618;28;20520;-69
2021/12/12 04:06:12;;;;;;;0.40;0.30;;;0.80;99.90;;;;;;5092475;28;20386;-68
2021/12/12 04:08:42;;;;;;;0.40;0.20;;;0.70;99.90;;;;;;5091626;28;20406;-68
2021/12/12 04:11:18;;;;;;;0.40;0.20;;;0.70;99.90;;;;;;5092459;28;20414;-68
2021/12/12 04:13:46;;;;;;;0.40;0.20;;;0.60;99.90;;;;;;5091881;28;20419;-68
2021/12/12 04:16:12;;;;;;;0.40;0.30;;;0.60;99.90;;;;;;5092339;28;20381;-68
2021/12/12 04:18:38;;;;;;;0.60;0.50;;;0.60;99.90;;;;;;5091763;28;20979;-68
2021/12/12 04:21:04;;;;;;;0.40;0.20;;;0.60;99.90;;;;;;5091506;28;20387;-68
2021/12/12 04:23:31;;;;;;;0.40;0.30;;;0.50;99.90;;;;;;5092384;28;20715;-68
2021/12/12 04:26:29;;;;;;;0.40;0.20;;;0.50;99.90;;;;;;5101898;28;20495;-68
2021/12/12 04:29:10;;;;;;;1.00;0.90;;;0.60;99.90;;;;;;5106175;28;20451;-67
2021/12/12 04:31:39;;;;;;;0.40;0.30;;;0.50;99.90;;;;;;5112788;28;20377;-68
2021/12/12 04:34:06;;;;;;;0.40;0.30;;;0.60;99.90;;;;;;5096517;28;20481;-69
2021/12/12 04:36:40;;;;;;;0.60;0.50;;;0.60;99.90;;;;;;5092114;28;20378;-68
2021/12/12 04:39:38;;;;;;;0.40;0.30;;;0.60;99.90;;;;;;5091141;28;20447;-70
2021/12/12 04:42:22;;;;;;;0.40;0.20;;;0.60;99.90;;;;;;5057466;28;20415;-69
2021/12/12 04:44:51;;;;;;;0.40;0.30;;;0.50;99.90;;;;;;5091811;28;20760;-68
2021/12/12 04:50:25;;;;;;;0.40;0.20;;;0.50;99.90;;;;;;5090850;28;20960;-69
2021/12/12 04:53:01;;;;;;;0.40;0.20;;;0.60;99.90;;;;;;5091867;28;20408;-68
2021/12/12 04:55:33;;;;;;;0.40;0.20;;;0.70;99.90;;;;;;5091689;28;20529;-69
2021/12/12 04:58:28;;;;;;;0.40;0.20;;;0.60;99.90;;;;;;5092093;28;20386;-68
2021/12/12 05:01:10;;;;;;;0.40;0.20;;;0.50;99.90;;;;;;5092144;28;20418;-69
2021/12/12 05:03:42;;;;;;;0.40;0.30;;;0.50;99.90;;;;;;5091434;28;20415;-69
2021/12/12 05:06:28;;;;;;;0.40;0.20;;;0.50;99.90;;;;;;5091569;28;20367;-69
2021/12/12 05:09:06;;;;;;;0.40;0.30;;;0.40;99.90;;;;;;5092016;28;20557;-68
2021/12/12 05:11:52;;;;;;;0.40;0.30;;;0.50;99.90;;;;;;5091267;28;20422;-69
2021/12/12 05:14:22;;;;;;;0.40;0.25;;;0.40;99.90;;;;;;5091383;28;20769;-69
2021/12/12 05:16:54;;;;;;;0.40;0.20;;;0.40;99.90;;;;;;5091683;28;20447;-69
2021/12/12 05:19:27;;;;;;;0.40;0.20;;;0.40;99.90;;;;;;5091422;28;20381;-69
2021/12/12 05:21:58;;;;;;;0.40;0.20;;;0.40;99.90;;;;;;5091386;28;20378;-69
2021/12/12 05:24:26;;;;;;;0.40;0.30;;;0.30;99.90;;;;;;5091182;28;20923;-70
2021/12/12 05:26:56;;;;;;;0.40;0.20;;;0.30;99.90;;;;;;5091204;28;20398;-69
2021/12/12 05:29:30;;;;;;;0.70;0.70;;;0.30;99.90;;;;;;5091237;28;20406;-69
2021/12/12 05:32:01;;;;;;;0.40;0.20;;;0.30;99.90;;;;;;5090876;28;20440;-69
2021/12/12 05:34:30;;;;;;;0.40;0.20;;;0.20;99.90;;;;;;5109303;28;20388;-69
2021/12/12 05:36:57;;;;;;;0.40;0.30;;;0.30;99.90;;;;;;5110608;28;20381;-69
2021/12/12 05:39:24;;;;;;;0.40;0.20;;;0.30;99.90;;;;;;5111517;28;20450;-69
2021/12/12 05:41:53;;;;;;;0.40;0.20;;;0.30;99.90;;;;;;5110600;28;20376;-69
2021/12/12 05:44:19;;;;;;;0.40;0.30;;;0.30;99.90;;;;;;5111601;28;20376;-69
2021/12/12 05:46:45;;;;;;;0.40;0.30;;;0.30;99.90;;;;;;5111625;28;20404;-69
2021/12/12 05:49:11;;;;;;;0.40;0.30;;;0.30;99.90;;;;;;5092569;28;20431;-69
2021/12/12 05:51:38;;;;;;;0.40;0.20;;;0.30;99.90;;;;;;5111344;28;20861;-69
2021/12/12 05:54:06;;;;;;;0.40;0.20;;;0.30;99.90;;;;;;5092706;28;20399;-70
2021/12/12 05:56:35;;;;;;;0.40;0.20;;;0.30;99.90;;;;;;5111570;28;20381;-69
2021/12/12 05:59:02;;;;;;;0.40;0.20;;;0.30;99.90;;;;;;5092771;28;20384;-70
2021/12/12 06:01:30;;;;;;;0.40;0.20;;;0.30;99.90;;;;;;5111318;28;20383;-69
2021/12/12 06:03:56;;;;;;;0.40;0.20;;;0.30;99.90;;;;;;5111355;28;20376;-69
2021/12/12 06:06:29;;;;;;;0.40;0.40;;;0.30;99.90;;;;;;5110865;28;20391;-69
2021/12/12 06:09:01;;;;;;;0.40;0.20;;;0.30;99.90;;;;;;5111213;28;20534;-69
2021/12/12 06:11:29;;;;;;;0.40;0.20;;;0.30;99.90;;;;;;5110917;28;20441;-69
2021/12/12 06:13:56;;;;;;;0.40;0.20;;;0.30;99.90;;;;;;5093489;28;20734;-69
2021/12/12 06:16:23;;;;;;;0.40;0.20;;;0.20;99.90;;;;;;5115141;28;20377;-70
2021/12/12 06:18:53;;;;;;;0.40;0.20;;;0.20;99.90;;;;;;5115829;28;20384;-69
2021/12/12 06:21:19;;;;;;;0.40;0.20;;;0.20;99.90;;;;;;5115131;28;20383;-69
2021/12/12 06:23:45;;;;;;;0.40;0.20;;;0.10;99.90;;;;;;5097332;28;20376;-69
2021/12/12 06:26:11;;;;;;;0.40;0.37;;;0.20;99.90;;;;;;5115551;28;20541;-69
2021/12/12 06:28:39;;;;;;;0.40;0.20;;;0.20;99.90;;;;;;5114898;28;20795;-69
2021/12/12 06:31:06;;;;;;;0.40;0.20;;;0.30;99.90;;;;;;5097548;28;20383;-69
2021/12/12 06:33:32;;;;;;;0.40;0.30;;;0.20;99.90;;;;;;5104168;28;20392;-69
2021/12/12 06:35:59;;;;;;;0.40;0.20;;;0.30;99.90;;;;;;5094820;28;20418;-70
2021/12/12 06:38:25;;;;;;;0.40;0.20;;;0.30;99.90;;;;;;5095138;28;20390;-69
2021/12/12 06:40:52;;;;;;;0.40;0.30;;;0.30;99.90;;;;;;5094114;28;20452;-69
2021/12/12 06:43:20;;;;;;;0.40;0.20;;;0.40;99.90;;;;;;5094928;28;20404;-69
2021/12/12 06:45:46;;;;;;;2.00;0.90;;;0.30;99.90;;;;;;5093951;28;20374;-69
2021/12/12 06:48:13;;;;;;;0.40;0.30;;;0.40;99.90;;;;;;5094671;28;20378;-69
2021/12/12 06:50:42;;;;;;;0.40;0.28;;;0.40;99.90;;;;;;5094512;28;20374;-70
2021/12/12 06:53:09;;;;;;;0.40;0.30;;;0.30;99.90;;;;;;5094569;28;20382;-69
2021/12/12 06:55:37;;;;;;;0.40;0.30;;;0.30;99.90;;;;;;5094265;28;20386;-69
2021/12/12 06:58:06;;;;;;;0.40;0.20;;;0.30;99.90;;;;;;5093486;28;20882;-69
2021/12/12 07:00:34;;;;;;;0.40;0.30;;;0.50;99.90;;;;;;5094404;28;20417;-69
2021/12/12 07:03:00;;;;;;;0.40;0.30;;;0.50;99.90;;;;;;5093614;28;20386;-70
2021/12/12 07:05:28;;;;;;;0.80;0.70;;;0.60;99.90;;;;;;5094142;28;20369;-69
2021/12/12 07:07:55;;;;;;;0.40;0.40;;;0.50;99.90;;;;;;5093855;28;20405;-69
2021/12/12 07:10:25;;;;;;;0.40;0.20;;;0.50;99.90;;;;;;5093582;28;20459;-69
2021/12/12 07:12:55;;;;;;;0.40;0.20;;;0.50;99.90;;;;;;5093835;28;20385;-69
2021/12/12 07:15:29;;;;;;;0.60;0.50;;;0.50;99.90;;;;;;5093621;28;20406;-69
2021/12/12 07:17:58;;;;;;;0.40;0.20;;;0.60;99.90;;;;;;5094051;28;20730;-69
2021/12/12 07:20:25;;;;;;;0.50;0.50;;;0.60;99.90;;;;;;5105801;27;20478;-69
2021/12/12 07:22:52;;;;;;;0.40;0.30;;;0.70;99.90;;;;;;5122689;27;20391;-69
2021/12/12 07:25:19;;;;;;;0.40;0.20;;;0.70;99.90;;;;;;5112309;27;20510;-69
2021/12/12 07:27:45;;;;;;;0.40;0.20;;;0.70;99.90;;;;;;5124728;27;20388;-69
2021/12/12 07:30:10;;;;;;;0.40;0.20;;;0.70;99.90;;;;;;5128885;27;20398;-69
2021/12/12 07:32:39;;;;;;;0.40;0.30;;;0.80;99.90;;;;;;5124779;27;20392;-69
2021/12/12 07:35:09;;;;;;;0.50;0.50;;;0.90;99.90;;;;;;5113905;27;20388;-69
2021/12/12 07:37:36;;;;;;;0.40;0.30;;;0.90;99.90;;;;;;5108311;27;21032;-69
2021/12/12 07:40:07;;;;;;;0.40;0.20;;;0.90;99.90;;;;;;5131831;27;20382;-69
2021/12/12 07:42:34;;;;;;;0.40;0.30;;;1.00;99.90;;;;;;5125137;27;20422;-70
2021/12/12 07:45:00;;;;;;;0.50;0.50;;;1.00;99.90;;;;;;5119336;27;20390;-69
2021/12/12 07:47:28;;;;;;;0.70;0.70;;;1.00;99.90;;;;;;5111454;27;20392;-69
2021/12/12 07:49:55;;;;;;;0.40;0.20;;;1.00;99.90;;;;;;5106555;27;20430;-69
2021/12/12 07:52:27;;;;;;;0.40;0.30;;;1.10;99.90;;;;;;5113503;27;20384;-69
2021/12/12 07:54:55;;;;;;;0.40;0.20;;;1.10;99.90;;;;;;5115078;27;20833;-69
2021/12/12 07:57:22;;;;;;;0.40;0.22;;;1.10;99.90;;;;;;5126570;27;20378;-69
2021/12/12 07:59:48;;;;;;;0.40;0.20;;;1.30;99.90;;;;;;5133256;27;20560;-69
2021/12/12 08:02:15;;;;;;;0.40;0.20;;;1.30;99.90;;;;;;5115525;27;20387;-69
2021/12/12 08:04:45;;;;;;;0.40;0.30;;;1.20;99.90;;;;;;5133220;27;20408;-70
2021/12/12 08:07:14;;;;;;;0.40;0.30;;;1.30;99.90;;;;;;5114993;27;20516;-70
2021/12/12 08:09:42;;;;;;;0.40;0.20;;;1.30;99.90;;;;;;5127820;27;20403;-70
2021/12/12 08:12:17;;;;;;;0.40;0.30;;;1.40;99.90;;;;;;5129508;27;20395;-70
2021/12/12 08:14:44;;;;;;;0.40;0.20;;;1.50;99.90;;;;;;5116340;27;20424;-69
2021/12/12 08:17:12;;;;;;;0.80;0.70;;;1.60;99.90;;;;;;5132523;27;20371;-70
2021/12/12 08:19:38;;;;;;;0.40;0.20;;;1.60;99.90;;;;;;5101915;27;20950;-70
2021/12/12 08:22:08;;;;;;;0.40;0.30;;;1.60;99.90;;;;;;5132833;27;20454;-70
2021/12/12 08:24:37;;;;;;;0.40;0.20;;;1.70;99.90;;;;;;5132950;27;20422;-70
2021/12/12 08:27:08;;;;;;;0.40;0.30;;;1.80;99.90;;;;;;5132823;27;20398;-69
2021/12/12 08:29:36;;;;;;;0.40;0.20;;;1.90;99.90;;;;;;5132895;27;20786;-68
2021/12/12 08:32:10;;;;;;;0.40;0.20;;;2.00;99.90;;;;;;5127002;27;20427;-69
2021/12/12 08:34:36;;;;;;;0.40;0.20;;;2.00;99.90;;;;;;5113334;27;20391;-68
2021/12/12 08:37:05;;;;;;;0.40;0.20;;;2.10;99.90;;;;;;5111669;28;20842;-69
2021/12/12 08:39:31;;;;;;;0.40;0.20;;;2.10;99.90;;;;;;5112717;28;20399;-68
2021/12/12 08:41:59;;;;;;;0.40;0.20;;;2.20;99.90;;;;;;5111777;28;20726;-68
2021/12/12 08:44:26;;;;;;;0.50;0.50;;;2.20;99.90;;;;;;5107285;27;20386;-68
2021/12/12 08:46:55;;;;;;;0.40;0.20;;;2.20;99.90;;;;;;5112455;27;20380;-69
2021/12/12 08:49:23;;;;;;;0.40;0.20;;;2.40;99.90;;;;;;5120417;27;20406;-68
2021/12/12 08:51:54;;;;;;;0.40;0.30;;;2.50;99.90;;;;;;5132381;27;20931;-68
2021/12/12 08:54:29;;;;;;;0.40;0.20;;;2.40;99.90;;;;;;5116853;27;20424;-69
2021/12/12 08:57:05;;;;;;;0.40;0.30;;;2.40;99.90;;;;;;5116919;27;20404;-68
2021/12/12 08:59:35;;;;;;;0.40;0.20;;;2.60;99.90;;;;;;5094827;28;20392;-69
2021/12/12 09:02:05;;;;;;;0.40;0.30;;;2.60;99.90;;;;;;5108147;28;20395;-69
2021/12/12 09:04:34;;;;;;;1.10;1.00;;;2.50;99.90;;;;;;5123573;27;20377;-69
2021/12/12 09:07:10;;;;;;;1.20;0.80;;;2.60;99.90;;;;;;5113743;27;20878;-69
2021/12/12 09:09:41;;;;;;;0.40;0.20;;;2.70;99.90;;;;;;5105804;27;20411;-68
2021/12/12 09:12:14;;;;;;;0.40;0.20;;;2.80;99.90;;;;;;5107637;27;20403;-69
2021/12/12 09:14:52;;;;;;;0.40;0.20;;;2.80;99.90;;;;;;5115836;27;20412;-68
2021/12/12 09:17:24;;;;;;;0.40;0.20;;;2.80;99.90;;;;;;5086504;28;20740;-68
2021/12/12 09:19:52;;;;;;;0.40;0.30;;;2.90;99.90;;;;;;5093671;28;20806;-68
2021/12/12 09:22:20;;;;;;;0.40;0.22;;;3.00;99.90;;;;;;5111668;28;20783;-68
2021/12/12 09:25:16;;;;;;;0.40;0.23;;;3.00;99.90;;;;;;5107685;28;20442;-68
2021/12/12 09:27:49;;;;;;;0.50;0.50;;;3.00;99.90;;;;;;5096333;28;20444;-71
2021/12/12 09:30:19;;;;;;;0.40;0.20;;;3.00;99.90;;;;;;5105709;28;20481;-71
2021/12/12 09:32:50;;;;;;;0.40;0.20;;;3.30;99.90;;;;;;5099301;28;20424;-72
2021/12/12 09:35:23;;;;;;;0.40;0.30;;;3.30;99.90;;;;;;5100540;28;20392;-71
2021/12/12 09:37:54;;;;;;;0.40;0.20;;;3.20;99.90;;;;;;5098252;28;21138;-70
2021/12/12 09:40:40;;;;;;;0.40;0.22;;;3.60;99.90;;;;;;5097482;28;20395;-71
2021/12/12 09:43:34;;;;;;;0.40;0.20;;;3.40;99.90;;;;;;5096671;28;20487;-71
2021/12/12 09:46:44;;;;;;;0.40;0.30;;;3.50;99.90;;;;;;5094219;28;20384;-71
2021/12/12 09:52:36;;;;;;;0.40;0.20;;;3.70;99.90;;;;;;5096074;28;20368;-71
2021/12/12 09:55:20;;;;;;;0.40;0.30;;;3.80;99.90;;;;;;5075273;28;20751;-71
2021/12/12 09:57:52;;;;;;;0.40;0.40;;;3.90;99.90;;;;;;5078811;28;20866;-70
2021/12/12 10:00:31;;;;;;;0.77;0.60;;;3.90;99.90;;;;;;5096142;28;20403;-70
2021/12/12 10:03:26;;;;;;;1.00;0.70;;;3.90;99.90;;;;;;5096732;28;20810;-71
2021/12/12 10:06:00;;;;;;;0.40;0.40;;;4.00;99.90;;;;;;5094481;28;20388;-70
2021/12/12 10:08:47;;;;;;;0.40;0.28;;;4.10;99.90;;;;;;5096729;28;20418;-71
2021/12/12 10:11:38;;;;;;;0.80;0.80;;;4.00;99.90;;;;;;5096122;28;20400;-71
2021/12/12 10:14:22;;;;;;;0.40;0.40;;;4.30;99.90;;;;;;5096137;28;20388;-72
2021/12/12 10:17:11;;;;;;;0.40;0.30;;;4.30;99.90;;;;;;5096793;28;20391;-71
2021/12/12 10:19:44;;;;;;;0.40;0.30;;;4.20;99.90;;;;;;5097294;28;20389;-72
2021/12/12 10:22:31;;;;;;;0.40;0.30;;;4.40;99.90;;;;;;5095826;28;20396;-72
2021/12/12 10:25:23;;;;;;;0.40;0.30;;;4.50;99.90;;;;;;5091378;28;20400;-71
2021/12/12 10:28:22;;;;;;;0.40;0.20;;;4.70;99.90;;;;;;5095856;28;20424;-72
2021/12/12 10:31:13;;;;;;;0.40;0.30;;;4.80;99.90;;;;;;5093635;28;20420;-72
2021/12/12 10:34:08;;;;;;;0.40;0.40;;;4.90;99.90;;;;;;5077395;28;20426;-71
2021/12/12 10:36:49;;;;;;;0.40;0.30;;;4.90;99.90;;;;;;5092472;28;20999;-71
2021/12/12 10:39:22;;;;;;;0.50;0.40;;;4.90;99.90;;;;;;5096144;28;20410;-71
2021/12/12 10:41:54;;;;;;;0.40;0.30;;;4.80;99.90;;;;;;5096013;28;20401;-75
2021/12/12 10:44:26;;;;;;;0.40;0.30;;;4.70;99.90;;;;;;5095262;28;20517;-75
2021/12/12 10:47:08;;;;;;;0.40;0.20;;;4.70;99.90;;;;;;5078197;28;20925;-74
2021/12/12 10:49:52;;;;;;;0.40;0.30;;;4.80;99.90;;;;;;5095169;28;20515;-73
2021/12/12 10:52:31;;;;;;;0.60;0.60;;;4.70;99.90;;;;;;5078220;28;20432;-73
2021/12/12 10:55:04;;;;;;;0.40;0.30;;;4.70;99.90;;;;;;5093937;28;20556;-73
2021/12/12 10:57:35;;;;;;;0.40;0.20;;;4.80;99.90;;;;;;5077240;28;20447;-73
2021/12/12 11:00:12;;;;;;;0.40;0.30;;;4.60;99.90;;;;;;5097366;28;20477;-73
2021/12/12 11:02:47;;;;;;;0.40;0.20;;;4.80;99.90;;;;;;5113038;28;20375;-73
2021/12/12 11:05:22;;;;;;;0.40;0.30;;;4.70;99.90;;;;;;5114925;28;20461;-72
2021/12/12 11:08:04;;;;;;;0.40;0.30;;;4.90;99.90;;;;;;5128013;27;20862;-70
2021/12/12 11:10:35;;;;;;;0.40;0.20;;;4.90;99.90;;;;;;5131543;27;21037;-72
2021/12/12 11:13:08;;;;;;;0.40;0.30;;;4.90;99.90;;;;;;5115736;27;20384;-70
2021/12/12 11:15:42;;;;;;;0.40;0.30;;;4.90;99.90;;;;;;5134121;27;20387;-71
2021/12/12 11:18:13;;;;;;;0.40;0.30;;;5.00;99.90;;;;;;5114165;27;20399;-70
2021/12/12 11:20:50;;;;;;;0.40;0.20;;;5.10;99.90;;;;;;5122347;27;20498;-71
2021/12/12 11:23:29;;;;;;;0.40;0.30;;;5.20;99.90;;;;;;5134021;27;20382;-71
2021/12/12 11:26:03;;;;;;;0.40;0.38;;;5.10;99.90;;;;;;5128960;27;20399;-70
2021/12/12 11:28:46;;;;;;;0.40;0.30;;;5.20;99.90;;;;;;5134243;27;20374;-71
2021/12/12 11:31:16;;;;;;;0.40;0.20;;;5.30;99.90;;;;;;5134474;27;20379;-71
2021/12/12 11:33:47;;;;;;;0.60;0.60;;;5.30;99.90;;;;;;5123266;27;20380;-72
2021/12/12 11:36:18;;;;;;;0.40;0.40;;;5.30;99.90;;;;;;5134109;27;20767;-71
2021/12/12 11:39:05;;;;;;;0.40;0.20;;;5.30;99.90;;;;;;5133345;27;20379;-72
2021/12/12 11:41:42;;;;;;;0.40;0.30;;;5.50;99.90;;;;;;5132588;27;20466;-71
2021/12/12 11:44:14;;;;;;;0.40;0.30;;;5.80;99.90;;;;;;5099992;27;20375;-71
2021/12/12 11:47:03;;;;;;;0.40;0.20;;;5.70;99.90;;;;;;5122833;27;20483;-71
2021/12/12 11:49:47;;;;;;;0.40;0.30;;;5.80;99.90;;;;;;5076099;27;20410;-71
2021/12/12 11:52:42;;;;;;;0.40;0.30;;;5.80;99.90;;;;;;5092378;28;20374;-71
2021/12/12 11:55:26;;;;;;;0.40;0.20;;;6.00;99.90;;;;;;5109027;27;20408;-71
2021/12/12 11:58:06;;;;;;;0.40;0.30;;;6.10;99.90;;;;;;5130068;27;20406;-72
2021/12/12 12:00:38;;;;;;;0.40;0.20;;;5.80;99.90;;;;;;5133319;27;20861;-70
2021/12/12 12:03:24;;;;;;;0.40;0.30;;;6.10;99.90;;;;;;5132906;27;20398;-70
2021/12/12 12:06:12;;;;;;;0.40;0.40;;;6.40;99.90;;;;;;5133418;27;20383;-71
2021/12/12 12:08:46;;;;;;;0.40;0.30;;;6.30;99.90;;;;;;5133452;27;20816;-71
2021/12/12 12:11:43;;;;;;;0.40;0.30;;;6.10;99.90;;;;;;5132030;27;20387;-71
2021/12/12 12:14:41;;;;;;;0.40;0.30;;;6.40;99.90;;;;;;5117302;27;20732;-72
2021/12/12 12:17:22;;;;;;;1.10;0.90;;;6.40;99.90;;;;;;5132583;27;20427;-71
2021/12/12 12:20:01;;;;;;;1.00;0.70;;;6.60;99.90;;;;;;5131632;27;20379;-71
2021/12/12 12:22:35;;;;;;;0.40;0.30;;;6.50;99.90;;;;;;5132795;27;20374;-71
2021/12/12 12:25:28;;;;;;;0.40;0.20;;;6.70;99.90;;;;;;5132244;27;20461;-71
2021/12/12 12:28:06;;;;;;;0.40;0.40;;;6.60;99.90;;;;;;5133306;27;20386;-70
2021/12/12 12:30:31;;;;;;;0.40;0.30;;;6.70;99.90;;;;;;5132951;27;20399;-71
2021/12/12 12:33:15;;;;;;;0.40;0.30;;;6.50;99.90;;;;;;5127506;27;20454;-71
2021/12/12 12:36:15;;;;;;;0.40;0.30;;;6.60;99.90;;;;;;5108719;28;20372;-72
2021/12/12 12:39:18;;;;;;;0.70;0.50;;;6.60;99.90;;;;;;5099560;28;21595;-72
2021/12/12 12:42:02;;;;;;;0.40;0.30;;;6.70;99.90;;;;;;5100071;28;20376;-72
2021/12/12 12:45:05;;;;;;;0.60;0.60;;;6.70;99.90;;;;;;5097895;28;20444;-72
2021/12/12 12:47:40;;;;;;;0.40;0.30;;;6.60;99.90;;;;;;5096578;28;20437;-72
2021/12/12 12:50:31;;;;;;;0.70;0.70;;;6.70;99.90;;;;;;5098052;28;20426;-71
2021/12/12 12:53:19;;;;;;;0.40;0.30;;;6.60;99.90;;;;;;5097787;28;20392;-72
2021/12/12 12:56:08;;;;;;;0.40;0.30;;;6.80;99.90;;;;;;5098340;28;20945;-71
2021/12/12 12:58:34;;;;;;;0.40;0.20;;;6.60;99.90;;;;;;5097752;28;20999;-71
2021/12/12 13:01:31;;;;;;;0.40;0.30;;;6.90;99.90;;;;;;5098663;28;20392;-71
2021/12/12 13:04:26;;;;;;;0.60;0.60;;;6.90;99.90;;;;;;5098187;28;20411;-72
2021/12/12 13:07:19;;;;;;;0.40;0.30;;;6.90;99.90;;;;;;5078067;28;20898;-72
2021/12/12 13:10:09;;;;;;;0.40;0.20;;;6.80;99.90;;;;;;5097405;28;20598;-72
2021/12/12 13:12:53;;;;;;;0.80;0.80;;;6.80;99.90;;;;;;5098427;28;20385;-72
2021/12/12 13:15:39;;;;;;;1.00;1.00;;;6.70;99.90;;;;;;5097806;28;20533;-72
2021/12/12 13:18:26;;;;;;;0.40;0.30;;;6.70;99.90;;;;;;5095739;28;20738;-72
2021/12/12 13:21:08;;;;;;;0.40;0.20;;;6.60;99.90;;;;;;5097791;28;20373;-72
2021/12/12 13:24:11;;;;;;;0.40;0.35;;;6.60;99.90;;;;;;5097024;28;21103;-72
2021/12/12 13:27:01;;;;;;;0.40;0.25;;;6.60;99.90;;;;;;5093903;28;20723;-72
2021/12/12 13:30:04;;;;;;;0.40;0.30;;;6.50;99.90;;;;;;5096969;28;20845;-72
2021/12/12 13:32:50;;;;;;;0.40;0.20;;;6.50;99.90;;;;;;5097040;28;20442;-72
2021/12/12 13:35:25;;;;;;;0.40;0.30;;;6.60;99.90;;;;;;5096880;28;20862;-72
2021/12/12 13:38:13;;;;;;;0.40;0.30;;;6.60;99.90;;;;;;5093796;28;21050;-72
2021/12/12 13:40:49;;;;;;;0.40;0.20;;;6.70;99.90;;;;;;5077960;28;20436;-72
2021/12/12 13:43:42;;;;;;;0.40;0.30;;;6.50;99.90;;;;;;5096875;28;20385;-72
2021/12/12 13:46:47;;;;;;;0.40;0.20;;;6.60;99.90;;;;;;5094690;28;20397;-72
2021/12/12 13:49:23;;;;;;;0.40;0.30;;;6.50;99.90;;;;;;5096503;28;21271;-72
2021/12/12 13:51:52;;;;;;;0.40;0.20;;;6.50;99.90;;;;;;5096068;28;20368;-72
2021/12/12 13:54:29;;;;;;;1.80;0.90;;;6.40;99.90;;;;;;5095736;28;20427;-72